createdAt,value
2019-01-15T00:02:05.369Z,2.52
2019-01-15T00:04:34.258Z,2.53
2019-01-15T00:07:03.106Z,2.53
2019-01-15T00:09:31.903Z,2.43
2019-01-15T00:12:07.628Z,2.53
2019-01-15T00:14:31.403Z,2.51
2019-01-15T00:17:00.288Z,2.57
2019-01-15T00:19:29.162Z,2.57
2019-01-15T00:21:58.131Z,2.53
2019-01-15T00:24:26.923Z,2.55
2019-01-15T00:26:55.709Z,2.61
2019-01-15T00:29:24.519Z,2.68
2019-01-15T00:31:53.394Z,2.63
2019-01-15T00:34:22.306Z,2.66
2019-01-15T00:36:51.108Z,2.60
2019-01-15T00:39:20.432Z,2.58
2019-01-15T00:41:49.305Z,2.52
2019-01-15T00:44:18.109Z,2.56
2019-01-15T00:46:46.921Z,2.55
2019-01-15T00:49:15.889Z,2.50
2019-01-15T00:51:44.761Z,2.52
2019-01-15T00:54:13.705Z,2.43
2019-01-15T00:56:42.685Z,2.44
2019-01-15T00:59:11.501Z,2.45
2019-01-15T01:01:40.436Z,2.38
2019-01-15T01:04:09.424Z,2.42
2019-01-15T01:06:38.278Z,2.42
2019-01-15T01:09:10.587Z,2.39
2019-01-15T01:11:39.531Z,2.40
2019-01-15T01:14:08.484Z,2.38
2019-01-15T01:16:37.467Z,2.39
2019-01-15T01:19:06.473Z,2.40
2019-01-15T01:21:35.425Z,2.37
2019-01-15T01:24:04.478Z,2.30
2019-01-15T01:26:33.355Z,2.25
2019-01-15T01:29:02.298Z,2.22
2019-01-15T01:31:31.227Z,2.23
2019-01-15T01:34:00.117Z,2.14
2019-01-15T01:36:29.128Z,2.08
2019-01-15T01:38:57.933Z,2.09
2019-01-15T01:41:26.721Z,2.07
2019-01-15T01:43:55.516Z,2.03
2019-01-15T01:46:24.393Z,2.06
2019-01-15T01:48:53.500Z,2.01
2019-01-15T01:51:22.890Z,2.03
2019-01-15T01:53:51.743Z,1.95
2019-01-15T01:56:20.549Z,1.96
2019-01-15T01:58:49.349Z,2.01
2019-01-15T02:01:18.149Z,2.05
2019-01-15T02:03:47.027Z,2.00
2019-01-15T02:06:15.911Z,2.05
2019-01-15T02:08:44.942Z,1.98
2019-01-15T02:11:14.109Z,2.03
2019-01-15T02:13:44.781Z,2.07
2019-01-15T02:16:13.948Z,2.18
2019-01-15T02:18:42.823Z,2.02
2019-01-15T02:21:11.699Z,1.95
2019-01-15T02:23:40.504Z,1.85
2019-01-15T02:26:09.320Z,1.93
2019-01-15T02:28:38.099Z,1.87
2019-01-15T02:31:06.897Z,1.83
2019-01-15T02:33:35.766Z,1.85
2019-01-15T02:36:04.812Z,1.93
2019-01-15T02:38:33.815Z,1.84
2019-01-15T02:41:02.683Z,1.74
2019-01-15T02:43:31.551Z,1.75
2019-01-15T02:46:00.506Z,1.65
2019-01-15T02:48:29.286Z,1.72
2019-01-15T02:50:58.091Z,1.70
2019-01-15T02:53:26.968Z,1.83
2019-01-15T02:55:55.875Z,1.79
2019-01-15T02:58:25.458Z,1.67
2019-01-15T03:00:54.420Z,1.78
2019-01-15T03:03:23.333Z,1.73
2019-01-15T03:05:52.454Z,1.73
2019-01-15T03:08:21.312Z,1.70
2019-01-15T03:10:50.180Z,1.85
2019-01-15T03:13:19.054Z,1.79
2019-01-15T03:15:47.907Z,1.72
2019-01-15T03:18:17.062Z,1.68
2019-01-15T03:20:46.250Z,1.63
2019-01-15T03:23:15.075Z,1.59
2019-01-15T03:25:44.018Z,1.62
2019-01-15T03:28:12.875Z,1.56
2019-01-15T03:30:41.768Z,1.56
2019-01-15T03:33:10.556Z,1.61
2019-01-15T03:35:39.404Z,1.69
2019-01-15T03:38:08.342Z,1.58
2019-01-15T03:40:37.406Z,1.56
2019-01-15T03:43:06.375Z,1.53
2019-01-15T03:45:35.231Z,1.50
2019-01-15T03:48:04.192Z,1.49
2019-01-15T03:50:33.242Z,1.60
2019-01-15T03:53:02.269Z,1.62
2019-01-15T03:55:31.233Z,1.75
2019-01-15T03:58:00.134Z,1.87
2019-01-15T04:00:29.013Z,2.08
2019-01-15T04:02:58.089Z,2.13
2019-01-15T04:05:28.056Z,2.16
2019-01-15T04:08:00.867Z,2.11
2019-01-15T04:10:30.312Z,2.09
2019-01-15T04:12:59.284Z,2.12
2019-01-15T04:15:28.480Z,2.14
2019-01-15T04:17:58.521Z,2.14
2019-01-15T04:20:27.410Z,2.17
2019-01-15T04:22:56.392Z,2.18
2019-01-15T04:25:25.284Z,2.20
2019-01-15T04:27:54.291Z,2.16
2019-01-15T04:30:24.123Z,2.19
2019-01-15T04:32:53.011Z,2.22
2019-01-15T04:35:21.897Z,2.15
2019-01-15T04:37:50.846Z,2.13
2019-01-15T04:40:21.481Z,2.19
2019-01-15T04:42:50.799Z,2.19
2019-01-15T04:45:23.991Z,2.12
2019-01-15T04:47:52.932Z,2.11
2019-01-15T04:50:21.880Z,2.15
2019-01-15T04:52:58.835Z,2.02
2019-01-15T04:55:27.728Z,2.13
2019-01-15T04:57:56.616Z,2.06
2019-01-15T05:00:25.575Z,2.23
2019-01-15T05:02:56.283Z,2.23
2019-01-15T05:05:25.140Z,2.22
2019-01-15T05:07:54.081Z,2.25
2019-01-15T05:10:22.987Z,2.15
2019-01-15T05:12:51.819Z,2.20
2019-01-15T05:15:20.739Z,2.24
2019-01-15T05:17:49.620Z,2.26
2019-01-15T05:20:18.674Z,2.29
2019-01-15T05:22:47.658Z,2.16
2019-01-15T05:25:18.613Z,2.05
2019-01-15T05:27:47.677Z,2.22
2019-01-15T05:30:21.944Z,2.25
2019-01-15T05:32:51.200Z,2.05
2019-01-15T05:35:20.171Z,2.11
2019-01-15T05:37:49.195Z,2.10
2019-01-15T05:40:18.139Z,2.15
2019-01-15T05:42:47.064Z,2.05
2019-01-15T05:45:21.809Z,2.11
2019-01-15T05:47:52.644Z,2.17
2019-01-15T05:50:27.954Z,2.19
2019-01-15T05:52:56.962Z,2.17
2019-01-15T05:55:26.024Z,2.12
2019-01-15T05:57:54.998Z,2.15
2019-01-15T06:00:23.973Z,2.21
2019-01-15T06:02:52.940Z,2.20
2019-01-15T06:05:21.914Z,2.03
2019-01-15T06:07:50.868Z,2.02
2019-01-15T06:10:19.783Z,1.97
2019-01-15T06:12:48.643Z,2.00
2019-01-15T06:15:17.603Z,2.03
2019-01-15T06:17:46.591Z,2.06
2019-01-15T06:20:15.979Z,2.18
2019-01-15T06:22:44.957Z,2.27
2019-01-15T06:25:14.359Z,2.40
2019-01-15T06:27:43.488Z,2.42
2019-01-15T06:30:13.970Z,2.47
2019-01-15T06:32:42.899Z,2.44
2019-01-15T06:35:12.206Z,2.52
2019-01-15T06:37:41.200Z,2.56
2019-01-15T06:40:12.028Z,2.52
2019-01-15T06:42:40.960Z,2.63
2019-01-15T06:45:15.863Z,2.58
2019-01-15T06:47:44.814Z,2.40
2019-01-15T06:50:14.622Z,2.34
2019-01-15T06:52:43.826Z,2.33
2019-01-15T06:55:14.809Z,2.36
2019-01-15T06:57:43.795Z,2.40
2019-01-15T07:00:16.543Z,2.46
2019-01-15T07:02:45.398Z,2.52
2019-01-15T07:05:14.485Z,2.50
2019-01-15T07:07:43.462Z,2.42
2019-01-15T07:10:15.555Z,2.50
2019-01-15T07:12:44.511Z,2.48
2019-01-15T07:15:14.105Z,2.46
2019-01-15T07:17:43.117Z,2.52
2019-01-15T07:20:13.556Z,2.59
2019-01-15T07:22:42.447Z,2.61
2019-01-15T07:25:12.959Z,2.63
2019-01-15T07:27:41.816Z,2.62
2019-01-15T07:30:16.401Z,2.58
2019-01-15T07:32:45.353Z,2.51
2019-01-15T07:35:14.327Z,2.57
2019-01-15T07:37:43.266Z,2.49
2019-01-15T07:40:12.376Z,2.49
2019-01-15T07:42:41.322Z,2.52
2019-01-15T07:45:11.558Z,2.60
2019-01-15T07:47:40.589Z,2.55
2019-01-15T07:50:13.037Z,2.50
2019-01-15T07:52:41.984Z,2.54
2019-01-15T07:55:11.777Z,2.71
2019-01-15T07:57:40.645Z,2.77
2019-01-15T08:00:13.572Z,2.71
2019-01-15T08:02:42.518Z,2.80
2019-01-15T08:05:11.714Z,2.82
2019-01-15T08:07:40.583Z,2.95
2019-01-15T08:10:11.028Z,2.93
2019-01-15T08:12:39.959Z,3.09
2019-01-15T08:15:10.960Z,3.10
2019-01-15T08:17:40.098Z,3.08
2019-01-15T08:20:10.102Z,3.00
2019-01-15T08:22:39.067Z,2.94
2019-01-15T08:25:08.180Z,2.95
2019-01-15T08:27:37.055Z,2.94
2019-01-15T08:30:10.313Z,3.03
2019-01-15T08:32:39.448Z,3.15
2019-01-15T08:35:08.701Z,3.22
2019-01-15T08:37:37.645Z,3.34
2019-01-15T08:40:08.809Z,3.31
2019-01-15T08:42:37.764Z,3.33
2019-01-15T08:45:07.912Z,3.38
2019-01-15T08:47:40.199Z,3.22
2019-01-15T08:50:10.667Z,3.29
2019-01-15T08:52:40.362Z,3.24
2019-01-15T08:55:10.183Z,3.25
2019-01-15T08:57:40.243Z,3.43
2019-01-15T09:00:11.472Z,3.62
2019-01-15T09:02:40.417Z,3.77
2019-01-15T09:05:10.451Z,4.04
2019-01-15T09:07:40.481Z,4.16
2019-01-15T09:10:11.529Z,4.18
2019-01-15T09:12:40.721Z,4.36
2019-01-15T09:15:12.274Z,4.28
2019-01-15T09:17:41.427Z,4.29
2019-01-15T09:20:13.778Z,4.27
2019-01-15T09:22:42.741Z,4.31
2019-01-15T09:25:11.769Z,4.29
2019-01-15T09:27:40.833Z,4.24
2019-01-15T09:30:13.837Z,4.29
2019-01-15T09:32:42.741Z,4.40
2019-01-15T09:35:11.704Z,4.29
2019-01-15T09:37:41.641Z,4.21
2019-01-15T09:40:13.886Z,4.29
2019-01-15T09:42:42.786Z,4.42
2019-01-15T09:45:14.049Z,4.44
2019-01-15T09:47:50.789Z,4.49
2019-01-15T09:50:19.766Z,4.47
2019-01-15T09:52:49.145Z,4.50
2019-01-15T09:55:18.180Z,4.57
2019-01-15T09:57:47.318Z,4.74
2019-01-15T10:00:17.386Z,4.74
2019-01-15T10:02:46.443Z,4.78
2019-01-15T10:05:15.614Z,4.81
2019-01-15T10:07:44.922Z,4.87
2019-01-15T10:10:14.038Z,4.90
2019-01-15T10:12:42.991Z,4.88
2019-01-15T10:15:13.644Z,5.06
2019-01-15T10:17:42.960Z,5.09
2019-01-15T10:20:13.239Z,5.13
2019-01-15T10:22:42.391Z,5.12
2019-01-15T10:25:14.845Z,5.18
2019-01-15T10:27:44.658Z,5.13
2019-01-15T10:30:27.945Z,5.08
2019-01-15T10:33:21.486Z,5.12
2019-01-15T10:35:53.053Z,5.12
2019-01-15T10:38:22.512Z,5.05
2019-01-15T10:40:52.057Z,5.05
2019-01-15T10:43:21.459Z,5.07
2019-01-15T10:45:50.604Z,5.09
2019-01-15T10:48:19.693Z,5.27
2019-01-15T10:50:48.643Z,5.32
2019-01-15T10:53:17.600Z,5.27
2019-01-15T10:55:46.535Z,5.27
2019-01-15T10:58:17.646Z,5.17
2019-01-15T11:00:46.170Z,5.28
2019-01-15T11:03:15.090Z,5.09
2019-01-15T11:05:44.230Z,5.24
2019-01-15T11:08:13.383Z,5.44
2019-01-15T11:10:43.299Z,5.47
2019-01-15T11:13:13.237Z,5.52
2019-01-15T11:15:43.448Z,5.72
2019-01-15T11:18:13.629Z,5.88
2019-01-15T11:20:43.472Z,5.83
2019-01-15T11:23:12.468Z,5.60
2019-01-15T11:25:41.409Z,5.57
2019-01-15T11:28:10.354Z,5.64
2019-01-15T11:30:39.186Z,5.48
2019-01-15T11:33:08.061Z,5.43
2019-01-15T11:35:36.998Z,5.48
2019-01-15T11:38:05.956Z,5.51
2019-01-15T11:40:34.830Z,5.62
2019-01-15T11:43:03.927Z,5.68
2019-01-15T11:45:32.860Z,5.64
2019-01-15T11:48:01.916Z,5.80
2019-01-15T11:50:30.878Z,5.85
2019-01-15T11:52:59.678Z,5.82
2019-01-15T11:55:28.635Z,5.80
2019-01-15T11:57:57.626Z,5.75
2019-01-15T12:00:40.609Z,5.60
2019-01-15T12:03:20.897Z,5.68
2019-01-15T12:06:15.091Z,5.81
2019-01-15T12:09:02.813Z,5.82
2019-01-15T12:11:39.714Z,5.88
2019-01-15T12:14:26.863Z,5.76
2019-01-15T12:17:14.835Z,5.76
2019-01-15T12:19:52.139Z,5.66
2019-01-15T12:22:45.782Z,5.54
2019-01-15T12:25:34.185Z,5.54
2019-01-15T12:28:12.180Z,5.48
2019-01-15T12:30:49.364Z,5.51
2019-01-15T12:33:40.277Z,5.49
2019-01-15T12:36:40.018Z,5.43
2019-01-15T12:39:40.031Z,5.40
2019-01-15T12:42:20.337Z,5.43
2019-01-15T12:45:18.204Z,5.39
2019-01-15T12:48:03.587Z,5.41
2019-01-15T12:50:51.563Z,5.42
2019-01-15T12:53:38.468Z,5.53
2019-01-15T12:56:28.976Z,5.54
2019-01-15T12:59:32.021Z,5.50
2019-01-15T13:02:29.092Z,5.58
2019-01-15T13:05:18.351Z,5.61
2019-01-15T13:08:05.071Z,5.58
2019-01-15T13:11:07.572Z,5.61
2019-01-15T13:14:01.954Z,5.62
2019-01-15T13:16:49.834Z,5.59
2019-01-15T13:19:43.888Z,5.68
2019-01-15T13:22:29.802Z,5.59
2019-01-15T13:25:23.832Z,5.64
2019-01-15T13:28:11.779Z,5.66
2019-01-15T13:30:57.331Z,5.58
2019-01-15T13:33:38.939Z,5.56
2019-01-15T13:36:17.273Z,5.56
2019-01-15T13:39:08.972Z,5.61
2019-01-15T13:41:55.503Z,5.52
2019-01-15T13:44:42.185Z,5.46
2019-01-15T13:47:29.225Z,5.45
2019-01-15T13:50:18.063Z,5.54
2019-01-15T13:53:18.183Z,5.44
2019-01-15T13:56:04.806Z,5.47
2019-01-15T13:58:45.269Z,5.49
2019-01-15T14:01:32.443Z,5.49
2019-01-15T14:04:19.248Z,5.50
2019-01-15T14:07:04.421Z,5.52
2019-01-15T14:09:58.568Z,5.47
2019-01-15T14:12:45.467Z,5.48
2019-01-15T14:15:49.122Z,5.49
2019-01-15T14:18:42.229Z,5.39
2019-01-15T14:21:25.575Z,5.40
2019-01-15T14:24:13.458Z,5.44
2019-01-15T14:26:55.347Z,5.43
2019-01-15T14:29:43.156Z,5.41
2019-01-15T14:32:30.165Z,5.48
2019-01-15T14:35:27.345Z,5.39
2019-01-15T14:38:14.165Z,5.34
2019-01-15T14:41:00.725Z,5.32
2019-01-15T14:43:47.282Z,5.37
2019-01-15T14:46:35.160Z,5.40
2019-01-15T14:49:16.882Z,5.42
2019-01-15T14:52:08.010Z,5.33
2019-01-15T14:55:02.719Z,5.37
2019-01-15T14:57:58.300Z,5.25
2019-01-15T15:00:54.725Z,5.23
2019-01-15T15:03:52.182Z,5.28
2019-01-15T15:06:35.832Z,5.26
2019-01-15T15:09:19.365Z,5.28
2019-01-15T15:11:58.927Z,5.28
2019-01-15T15:14:40.025Z,5.24
2019-01-15T15:17:34.112Z,5.13
2019-01-15T15:20:26.671Z,5.17
2019-01-15T15:23:08.275Z,5.25
2019-01-15T15:25:54.886Z,5.16
2019-01-15T15:28:37.220Z,5.25
2019-01-15T15:31:24.088Z,5.28
2019-01-15T15:34:12.294Z,5.26
2019-01-15T15:36:53.416Z,5.20
2019-01-15T15:39:35.098Z,5.15
2019-01-15T15:42:26.434Z,5.25
2019-01-15T15:45:14.384Z,5.24
2019-01-15T15:47:54.452Z,5.28
2019-01-15T15:50:34.701Z,5.34
2019-01-15T15:53:21.652Z,5.27
2019-01-15T15:56:10.805Z,5.27
2019-01-15T15:58:48.940Z,5.20
2019-01-15T16:01:37.132Z,5.29
2019-01-15T16:04:23.917Z,5.35
2019-01-15T16:07:11.807Z,5.23
2019-01-15T16:09:58.594Z,5.21
2019-01-15T16:12:47.025Z,5.18
2019-01-15T16:15:41.108Z,5.19
2019-01-15T16:18:22.236Z,5.26
2019-01-15T16:21:14.955Z,5.26
2019-01-15T16:24:03.272Z,5.26
2019-01-15T16:27:03.304Z,5.24
2019-01-15T16:29:48.613Z,5.17
2019-01-15T16:32:48.601Z,5.23
2019-01-15T16:35:35.485Z,5.27
2019-01-15T16:38:17.070Z,5.28
2019-01-15T16:41:14.198Z,5.28
2019-01-15T16:44:01.147Z,5.35
2019-01-15T16:46:48.024Z,5.35
2019-01-15T16:49:34.182Z,5.33
2019-01-15T16:52:14.030Z,5.28
2019-01-15T16:55:00.930Z,5.29
2019-01-15T16:57:47.859Z,5.25
2019-01-15T17:00:36.629Z,5.30
2019-01-15T17:03:31.777Z,5.20
2019-01-15T17:06:25.451Z,5.21
2019-01-15T17:09:15.263Z,5.19
2019-01-15T17:12:06.241Z,5.20
2019-01-15T17:14:57.187Z,5.24
2019-01-15T17:17:45.096Z,5.26
2019-01-15T17:20:27.471Z,5.38
2019-01-15T17:23:14.088Z,5.33
2019-01-15T17:26:00.727Z,5.37
2019-01-15T17:28:54.656Z,5.30
2019-01-15T17:31:45.715Z,5.30
2019-01-15T17:34:25.902Z,5.37
2019-01-15T17:37:05.034Z,5.33
2019-01-15T17:40:05.038Z,5.35
2019-01-15T17:42:51.895Z,5.34
2019-01-15T17:45:35.951Z,5.27
2019-01-15T17:48:18.672Z,5.41
2019-01-15T17:51:12.677Z,5.31
2019-01-15T17:54:03.247Z,5.40
2019-01-15T17:56:54.425Z,5.34
2019-01-15T17:59:51.372Z,5.30
2019-01-15T18:02:43.622Z,5.31
2019-01-15T18:05:29.852Z,5.38
2019-01-15T18:08:31.314Z,5.38
2019-01-15T18:11:15.982Z,5.39
2019-01-15T18:14:11.702Z,5.34
2019-01-15T18:16:51.811Z,5.48
2019-01-15T18:19:44.861Z,5.40
2019-01-15T18:22:35.651Z,5.46
2019-01-15T18:25:36.720Z,5.43
2019-01-15T18:28:23.241Z,5.43
2019-01-15T18:31:23.258Z,5.37
2019-01-15T18:34:29.636Z,5.34
2019-01-15T18:37:13.944Z,5.44
2019-01-15T18:40:20.158Z,5.44
2019-01-15T18:43:06.739Z,5.40
2019-01-15T18:45:53.020Z,5.43
2019-01-15T18:48:33.825Z,5.44
2019-01-15T18:51:27.693Z,5.50
2019-01-15T18:54:14.399Z,5.44
2019-01-15T18:57:12.292Z,5.39
2019-01-15T19:00:06.284Z,5.41
2019-01-15T19:02:46.585Z,5.39
2019-01-15T19:05:43.799Z,5.28
2019-01-15T19:08:20.635Z,5.34
2019-01-15T19:11:07.475Z,5.40
2019-01-15T19:14:01.101Z,5.44
2019-01-15T19:17:03.398Z,5.47
2019-01-15T19:19:53.936Z,5.37
2019-01-15T19:22:45.007Z,5.35
2019-01-15T19:25:38.772Z,5.33
2019-01-15T19:28:25.550Z,5.38
2019-01-15T19:31:12.323Z,5.25
2019-01-15T19:33:59.148Z,5.23
2019-01-15T19:36:47.806Z,5.25
2019-01-15T19:39:21.194Z,5.15
2019-01-15T19:42:09.082Z,5.28
2019-01-15T19:44:50.241Z,5.38
2019-01-15T19:47:36.151Z,5.32
2019-01-15T19:50:18.991Z,5.41
2019-01-15T19:53:05.828Z,5.45
2019-01-15T19:55:48.021Z,5.41
2019-01-15T19:58:33.209Z,5.52
2019-01-15T20:01:30.535Z,5.49
2019-01-15T20:04:05.932Z,5.39
2019-01-15T20:06:57.281Z,5.50
2019-01-15T20:09:44.224Z,5.49
2019-01-15T20:12:22.625Z,5.54
2019-01-15T20:15:09.443Z,5.50
2019-01-15T20:17:45.829Z,5.44
2019-01-15T20:20:32.685Z,5.51
2019-01-15T20:23:19.568Z,5.47
2019-01-15T20:26:12.836Z,5.50
2019-01-15T20:29:07.004Z,5.53
2019-01-15T20:31:48.787Z,5.59
2019-01-15T20:34:30.348Z,5.48
2019-01-15T20:37:15.663Z,5.61
2019-01-15T20:39:57.146Z,5.56
2019-01-15T20:42:33.121Z,5.50
2019-01-15T20:45:19.948Z,5.45
2019-01-15T20:48:14.023Z,5.56
2019-01-15T20:51:04.683Z,5.64
2019-01-15T20:53:51.932Z,5.64
2019-01-15T20:56:38.730Z,5.68
2019-01-15T20:59:26.633Z,5.70
2019-01-15T21:02:17.538Z,5.65
2019-01-15T21:05:04.401Z,5.66
2019-01-15T21:07:51.346Z,5.62
2019-01-15T21:10:48.540Z,5.57
2019-01-15T21:13:32.873Z,5.58
2019-01-15T21:16:33.039Z,5.60
2019-01-15T21:19:19.942Z,5.56
2019-01-15T21:22:02.544Z,5.51
2019-01-15T21:24:59.597Z,5.55
2019-01-15T21:27:39.368Z,5.62
2019-01-15T21:30:41.580Z,5.55
2019-01-15T21:33:28.381Z,5.49
2019-01-15T21:36:12.947Z,5.52
2019-01-15T21:38:54.897Z,5.46
2019-01-15T21:41:40.656Z,5.46
2019-01-15T21:44:23.936Z,5.42
2019-01-15T21:47:11.810Z,5.53
2019-01-15T21:49:50.808Z,5.52
2019-01-15T21:52:32.515Z,5.50
2019-01-15T21:55:19.373Z,5.45
2019-01-15T21:58:06.189Z,5.44
2019-01-15T22:03:03.487Z,5.54
2019-01-15T22:05:54.565Z,5.56
2019-01-15T22:08:41.184Z,5.56
2019-01-15T22:11:27.872Z,5.48
2019-01-15T22:14:14.800Z,5.52
2019-01-15T22:17:05.538Z,5.50
2019-01-15T22:19:58.557Z,5.45
2019-01-15T22:22:45.082Z,5.56
2019-01-15T22:25:42.265Z,5.53
2019-01-15T22:28:42.013Z,5.46
2019-01-15T22:31:35.991Z,5.50
2019-01-15T22:34:36.409Z,5.49
2019-01-15T22:37:23.044Z,5.51
2019-01-15T22:40:05.012Z,5.47
2019-01-15T22:42:52.852Z,5.49
2019-01-15T22:45:33.427Z,5.55
2019-01-15T22:48:16.969Z,5.48
2019-01-15T22:51:13.999Z,5.53
2019-01-15T22:54:00.723Z,5.47
2019-01-15T22:56:56.195Z,5.35
2019-01-15T22:59:49.862Z,5.29
2019-01-15T23:02:40.464Z,5.42
2019-01-15T23:05:34.798Z,5.35
2019-01-15T23:08:13.317Z,5.41
2019-01-15T23:10:53.518Z,5.41
2019-01-15T23:13:44.336Z,5.43
2019-01-15T23:16:35.264Z,5.36
2019-01-15T23:19:16.720Z,5.42
2019-01-15T23:21:58.545Z,5.43
2019-01-15T23:24:58.606Z,5.40
2019-01-15T23:27:37.518Z,5.39
2019-01-15T23:30:36.859Z,5.35
2019-01-15T23:33:23.393Z,5.38
2019-01-15T23:36:04.557Z,5.33
2019-01-15T23:39:00.567Z,5.39
2019-01-15T23:41:56.855Z,5.40
2019-01-15T23:44:43.495Z,5.39
2019-01-15T23:47:40.653Z,5.34
2019-01-15T23:50:27.953Z,5.36
2019-01-15T23:53:06.297Z,5.25
2019-01-15T23:56:06.238Z,5.29
2019-01-15T23:58:52.746Z,5.32
